Jorge Duque

Olheiro - Millonarios
17 Jul 2027
Sábado
Processo

Personalidade

Adaptabilidade (19) Ambição (2) Controvérsia (6) Lealdade (6) Pressão (4) Profissionalismo (14) Espírito Esportivo (8) Temperamento (4)

Perfil

Estilo de Treinamento Democrático
Licença Continental B
Determinação 7
Gestão de Pessoas 10
Motivação 14
Disciplina 13
Satisfação no Trabalho
100%
Fadiga
0%
Função Olheiro
Salário 50.0K p/s
Contrato 14.03.2029

Desempenho

Comportamento Bom
Eficácia do Treinamento
46%
Desenvolvimento do Jogador
70%
Prevenção de Lesões
50%
Implementação Tática
60%

Eventos Recentes

Participou de uma reunião de recrutamento 7d atrás
Recomendou um alvo de transferência 7d atrás
Participou de uma reunião de recrutamento 14d atrás
Recomendou um alvo de transferência 14d atrás
Participou de uma reunião de recrutamento 21d atrás
Recomendou um alvo de transferência 21d atrás
Participou de uma reunião de recrutamento 28d atrás
Recomendou um alvo de transferência 28d atrás

Monitorando agora

159
Jogador Clube Status Habilidade Confiança Observado Última observação Último voto
Bryan Caicedo Leones Ativo 91 / 101 62% 1 03.06.2027 Aprovar
Carlos Vicente Udinese Ativo 151 / 149 40% 2 31.05.2027 -
Demarai Gray Birmingham Ativo 142 / 124 40% 3 30.05.2027 -
Patrick Roberts Birmingham Ativo 138 / 129 40% 1 30.05.2027 -
Brooke Norton-Cuffy Hull City Ativo 150 / 143 40% 6 29.05.2027 -
Óscar Mingueza Crystal Palace Ativo 162 / 152 40% 2 29.05.2027 -
Alfie Doughty Millwall Ativo 128 / 124 40% 3 28.05.2027 -
Oliver Skipp Leicester City Ativo 136 / 138 40% 2 28.05.2027 -
Bobby Thomas Coventry City Ativo 120 / 136 40% 3 28.05.2027 -
Cameron Pring Bristol City Ativo 136 / 123 40% 2 28.05.2027 -
Shea Charles Southampton Ativo 126 / 137 40% 5 26.05.2027 -
Tim Iroegbunam Hull City Ativo 146 / 134 40% 3 24.05.2027 -
Adam Wharton Crystal Palace Ativo 156 / 161 40% 4 24.05.2027 -
Nobel Mendy Hull City Ativo 130 / 131 40% 2 22.05.2027 -
Jacques Ekomié Wrexham Ativo 142 / 131 40% 3 21.05.2027 -
Yerry Mina Cagliari Ativo 149 / 138 40% 2 20.05.2027 -
Tristan Crama Millwall Ativo 131 / 118 40% 1 20.05.2027 -
Tariq Lamptey Queens Park Rangers Ativo 151 / 126 40% 2 19.05.2027 -
Mathias Jørgensen Blackburn Rovers Ativo 130 / 123 40% 1 17.05.2027 -
Callum Brittain Middlesbrough Ativo 117 / 126 40% 2 14.05.2027 -
Adrien Truffert Bournemouth Ativo 152 / 143 40% 3 14.05.2027 -
Daniel Muñoz Nottingham Forest Ativo 136 / 155 40% 3 12.05.2027 -
Max Bird Birmingham Ativo 141 / 125 40% 3 12.05.2027 -
Juanlu Bournemouth Ativo 158 / 156 40% 1 11.05.2027 -
Ryan Sessegnon Fulham Ativo 148 / 152 40% 3 10.05.2027 -
Florentino Luís Ipswich Town Ativo 132 / 141 40% 1 08.05.2027 -
Yehor Yarmoliuk Brentford Ativo 140 / 150 40% 1 08.05.2027 -
Isma Ruiz Córdoba Ativo 133 / 131 40% 5 06.05.2027 -
Harry Clarke Preston Ativo 126 / 131 40% 3 06.05.2027 -
Nordi Mukiele Sunderland Ativo 158 / 146 40% 4 05.05.2027 -
Ramón Terrats Getafe Ativo 156 / 139 40% 5 04.05.2027 -
Tom Fellows Southampton Ativo 120 / 139 40% 1 03.05.2027 -
Manor Solomon West Ham United Ativo 148 / 132 40% 1 03.05.2027 -
Max Johnston Derby County Ativo 143 / 129 40% 3 02.05.2027 -
Ferdi Kadıoğlu Brighton Ativo 139 / 143 40% 1 01.05.2027 -
Brodie Spencer Oxford United Ativo 136 / 118 40% 1 29.04.2027 -
Julio Enciso Ipswich Town Ativo 138 / 140 40% 2 26.04.2027 -
Zeidane Inoussa Swansea City Ativo 132 / 129 40% 1 26.04.2027 -
Edoardo Bove Watford Ativo 117 / 131 40% 1 22.04.2027 -
Joe Aribo Southampton Ativo 133 / 121 40% 1 22.04.2027 -
Rodrigo Gomes Wolverhampton Ativo 148 / 146 40% 1 22.04.2027 -
Tyler Adams Bournemouth Ativo 142 / 153 40% 4 20.04.2027 -
Odilon Kossounou Atalanta Ativo 145 / 150 40% 1 18.04.2027 -
Stephen Eustáquio Swansea City Ativo 134 / 131 40% 1 16.04.2027 -
Josen Escobar Athletic Bilbao Ativo 106 / 131 40% 2 14.04.2027 -
Juan Brunetta Torino Ativo 150 / 134 40% 3 12.04.2027 -
Marcus Edwards Burnley Ativo 144 / 141 40% 1 12.04.2027 -
Sorba Thomas Stoke City Ativo 123 / 130 40% 1 11.04.2027 -
Anton Stach Leeds United Ativo 157 / 140 40% 2 10.04.2027 -
Jordan Lotomba Bloemfontein Celtic Ativo 137 / 121 40% 1 10.04.2027 -
Olivier Boscagli Brighton Ativo 152 / 149 40% 1 09.04.2027 -
Camilo Durán Bloemfontein Celtic Ativo 118 / 120 40% 3 06.04.2027 -
James Garner Everton Ativo 157 / 149 40% 2 06.04.2027 -
Koki Saito Queens Park Rangers Ativo 142 / 124 40% 1 06.04.2027 -
Ben Chrisene Sheffield Wednesday Ativo 118 / 117 40% 1 06.04.2027 -
Saša Lukić Ipswich Town Ativo 151 / 142 40% 1 03.04.2027 -
Alex Scott Bournemouth Ativo 139 / 153 40% 2 31.03.2027 -
Ross McCrorie Bristol City Ativo 141 / 130 40% 1 31.03.2027 -
Léo Scienza Southampton Ativo 144 / 129 40% 1 30.03.2027 -
Ilias Chair Queens Park Rangers Ativo 116 / 127 40% 1 30.03.2027 -
Zizo Al Ahly Ativo 140 / 135 40% 3 28.03.2027 -
Quinten Timber Crystal Palace Ativo 156 / 153 40% 2 28.03.2027 -
Nacho Vidal Lechia Ativo 139 / 132 40% 1 28.03.2027 -
Jarrad Branthwaite Everton Ativo 154 / 148 40% 1 26.03.2027 -
Juan Larios Piast Ativo 107 / 119 40% 1 24.03.2027 -
Assane Diao Como Ativo 157 / 144 40% 2 23.03.2027 -
Nathan Collins Brentford Ativo 134 / 150 40% 2 23.03.2027 -
Helinho Toluca Ativo 119 / 130 40% 1 22.03.2027 -
Davinson Sánchez Galatasaray Ativo 156 / 149 40% 2 19.03.2027 -
Gustavo Puerta Olympiacos Ativo 143 / 150 40% 1 19.03.2027 -
Milan van Ewijk Coventry City Ativo 122 / 126 40% 1 17.03.2027 -
Dango Ouattara Brentford Ativo 133 / 153 40% 2 03.03.2027 -
Kiernan Dewsbury-Hall Everton Ativo 155 / 150 40% 1 03.03.2027 -
Ethan Galbraith Swansea City Ativo 121 / 129 40% 1 01.03.2027 -
Thiago Almada Fiorentina Ativo 146 / 150 40% 1 26.02.2027 -
Rafael Leão Galatasaray Ativo 172 / 155 40% 1 26.02.2027 -
Jhon Palacios Orenburg Ativo 128 / 122 40% 1 24.02.2027 -
Oussama Idrissi Ferencvaros Ativo 148 / 139 40% 2 23.02.2027 -
Tyrell Malacia Derby County Ativo 126 / 138 40% 4 19.02.2027 -
Welington Southampton Ativo 139 / 126 40% 2 10.02.2027 -
Anel Ahmedhodžić Burnley Ativo 133 / 134 40% 1 04.02.2027 -
Yankuba Minteh Brighton Ativo 153 / 151 40% 1 21.01.2027 -
Jherson Mosquera Newell's Old Boys Ativo 128 / 120 40% 2 20.01.2027 -
Jacob Greaves Ipswich Town Ativo 135 / 134 40% 1 19.01.2027 -
Pablo Solari Spartak Moscow Ativo 138 / 128 40% 1 18.01.2027 -
Damián Fernández Defensa y Justicia Ativo 120 / 121 40% 2 16.01.2027 -
Alexis Steimbach Gimnasia La Plata Ativo 126 / 119 40% 2 15.01.2027 -
Rodrigo González Aldosivi Ativo 120 / 116 40% 1 14.01.2027 -
Enzo Copetti Rosario Central Ativo 117 / 124 40% 1 09.01.2027 -
Musab Al-Juwayr Al-Qadisiyah Ativo 113 / 132 40% 2 08.01.2027 -
Rafael Santos Borré River Plate Ativo 141 / 135 40% 1 08.01.2027 -
Edwuin Cetré Estudiantes Ativo 126 / 125 40% 1 05.01.2027 -
Francisco Álvarez Argentinos Juniors Ativo 122 / 123 40% 1 28.12.2026 -
Déiber Caicedo Junior Ativo 110 / 112 58% 1 14.12.2026 Aprovar
Gastón Hernández San Lorenzo Ativo 119 / 129 40% 2 29.11.2026 -
Luciano Jachfe Nueva Chicago Ativo 106 / 115 40% 1 27.11.2026 -
César Pérez Defensa y Justicia Ativo 129 / 120 40% 2 26.11.2026 -
Mauro Silveira Junior Ativo 114 / 118 40% 6 25.11.2026 -
Vicente Poggi Godoy Cruz Ativo 127 / 127 40% 2 25.11.2026 -
Franco Ibarra Rosario Central Ativo 121 / 128 40% 2 25.11.2026 -
Enzo Vázquez Central Norte Ativo 100 / 105 40% 1 25.11.2026 -
Juan-José Perea Zurich Ativo 120 / 116 40% 1 25.11.2026 -
Tiago Palacios Estudiantes Ativo 126 / 129 40% 1 23.11.2026 -
Julián Palacios Unión de Santa Fe Ativo 109 / 112 40% 1 23.11.2026 -
Juan Moreno La Luz Ativo 119 / 111 40% 3 22.11.2026 -
Nahuel Galardi Maipú Ativo 116 / 109 40% 2 22.11.2026 -
Nicolás Tripichio San Lorenzo Ativo 133 / 127 40% 1 21.11.2026 -
Gastón Benedetti Estudiantes Ativo 114 / 121 40% 1 18.11.2026 -
Agustín Lastra Estudiantes Ativo 102 / 110 40% 2 16.11.2026 -
Marcos López San Martín Ativo 134 / 133 40% 1 14.11.2026 -
Lucas Carrizo Newell's Old Boys Ativo 117 / 127 40% 2 13.11.2026 -
Joaquín García Vélez Ativo 137 / 126 40% 3 12.11.2026 -
Ignacio Vázquez Platense Ativo 137 / 125 40% 2 11.11.2026 -
Lucas Souto Defensa y Justicia Ativo 115 / 125 40% 2 09.11.2026 -
Eduard Atuesta Orlando City Ativo 118 / 126 40% 1 09.11.2026 -
Leandro Lozano Boca Juniors Ativo 115 / 128 40% 2 07.11.2026 -
Alexis Cuello San Lorenzo Ativo 123 / 125 40% 1 07.11.2026 -
Sasha Marcich Lanús Ativo 115 / 127 40% 1 05.11.2026 -
Felipe Peña Biafore Lanús Ativo 133 / 130 40% 1 05.11.2026 -
Alex Luna Instituto Ativo 122 / 131 40% 1 05.11.2026 -
Nicolás Sumavil Platense Ativo 113 / 115 40% 3 04.11.2026 -
Jefferson Mejia Cortulua Ativo 130 / 126 40% 1 30.10.2026 -
Esteban Glellel Quilmes Ativo 117 / 114 40% 2 29.10.2026 -
Carl Rushworth Coventry City Ativo 122 / 137 40% 2 28.10.2026 -
Franco Watson Lanús Ativo 129 / 126 40% 1 27.10.2026 -
Sebastián Meza Huracán Ativo 124 / 124 40% 1 27.10.2026 -
Ignacio Schor O'Higgins Ativo 107 / 121 40% 1 21.10.2026 -
Brian Rodríguez Club America Ativo 119 / 126 40% 1 20.10.2026 -
Franco Pardo Santos Laguna Ativo 112 / 118 40% 2 18.10.2026 -
Luis Rodriguez Guadalajara Ativo 135 / 131 40% 1 18.10.2026 -
Alan Lescano Argentinos Juniors Ativo 120 / 126 40% 2 17.10.2026 -
Lautaro Amadé Defensa y Justicia Ativo 121 / 115 40% 2 13.10.2026 -
Augusto Bottini Almirante Brown Ativo 101 / 97 40% 1 09.10.2026 -
Mauro Casoli Talleres Ativo 112 / 103 40% 1 09.10.2026 -
Aarón Molinas Defensa y Justicia Ativo 126 / 123 40% 1 08.10.2026 -
Franco Romero Toluca Ativo 115 / 129 40% 1 06.10.2026 -
Cristopher Varela Deportivo La Guaira Ativo 112 / 113 40% 1 04.10.2026 -
Juan Pablo Barinaga Patronato Ativo 103 / 106 40% 1 02.10.2026 -
Pedro González Cerro Largo Ativo 107 / 108 40% 3 28.09.2026 -
Fernando Tapia Club America Ativo 144 / 127 40% 1 28.09.2026 -
Kevin Palacios Santos Laguna Ativo 101 / 117 40% 1 28.09.2026 -
Santiago Toloza O'Higgins Ativo 134 / 126 40% 1 28.09.2026 -
Diego Romero Universitario Ativo 129 / 125 40% 3 25.09.2026 -
Diego Enríquez Sporting Cristal Ativo 125 / 123 40% 4 25.09.2026 -
Héctor Holguín Morelia Ativo 123 / 107 40% 2 19.09.2026 -
Matías Dufour Sportivo Trinidense Ativo 115 / 111 40% 2 18.09.2026 -
Jesús Orozco Chiquete Cruz Azul Ativo 138 / 136 40% 2 16.09.2026 -
Willer Ditta Cruz Azul Ativo 126 / 142 40% 2 15.09.2026 -
Sergio Barreto Pachuca Ativo 148 / 128 40% 1 15.09.2026 -
Miguel Silva Carabobo Ativo 116 / 103 40% 2 13.09.2026 -
Tomás Ahumada Audax Italiano Ativo 113 / 108 40% 1 12.09.2026 -
Pablo Lara Pumas UNAM Ativo 114 / 124 40% 2 11.09.2026 -
Weibmar Asprilla Independiente Medellin Ativo 118 / 114 40% 1 04.09.2026 -
Rodrigo Morínigo Libertad Ativo 107 / 118 40% 1 27.08.2026 -
John Pulskamp Sporting Kansas City Ativo 111 / 118 40% 1 23.08.2026 -
Aldo Pérez Guarani Ativo 109 / 112 40% 1 17.08.2026 -
Alan Cervantes Club America Ativo 125 / 130 40% 1 11.08.2026 -
Adonis Frías Atlas Ativo 123 / 127 40% 1 10.08.2026 -
Álvaro Angulo Pumas UNAM Ativo 115 / 129 40% 1 02.08.2026 -